sensor_id;sensor_type;location;lat;lon;timestamp;pressure;altitude;pressure_sealevel;temperature;humidity
46087;BME280;31824;49.648;8.640;2023-08-24T00:01:58;100464.84;;;20.82;100.00
46087;BME280;31824;49.648;8.640;2023-08-24T00:05:00;100460.44;;;20.82;100.00
46087;BME280;31824;49.648;8.640;2023-08-24T00:08:03;100452.97;;;20.45;100.00
46087;BME280;31824;49.648;8.640;2023-08-24T00:11:04;100452.47;;;20.36;100.00
46087;BME280;31824;49.648;8.640;2023-08-24T00:14:08;100456.75;;;20.49;100.00
46087;BME280;31824;49.648;8.640;2023-08-24T00:17:10;100462.28;;;20.37;100.00
46087;BME280;31824;49.648;8.640;2023-08-24T00:20:12;100439.72;;;20.15;100.00
46087;BME280;31824;49.648;8.640;2023-08-24T00:23:15;100433.41;;;20.13;100.00
46087;BME280;31824;49.648;8.640;2023-08-24T00:26:17;100435.19;;;19.98;100.00
46087;BME280;31824;49.648;8.640;2023-08-24T00:29:20;100436.00;;;19.97;100.00
46087;BME280;31824;49.648;8.640;2023-08-24T00:32:23;100426.16;;;19.96;100.00
46087;BME280;31824;49.648;8.640;2023-08-24T00:35:25;100425.72;;;20.19;100.00
46087;BME280;31824;49.648;8.640;2023-08-24T00:38:27;100420.09;;;19.98;100.00
46087;BME280;31824;49.648;8.640;2023-08-24T00:41:28;100416.53;;;19.83;100.00
46087;BME280;31824;49.648;8.640;2023-08-24T00:44:31;100420.63;;;20.07;100.00
46087;BME280;31824;49.648;8.640;2023-08-24T00:47:33;100426.50;;;20.17;100.00
46087;BME280;31824;49.648;8.640;2023-08-24T00:50:35;100424.81;;;20.50;100.00
46087;BME280;31824;49.648;8.640;2023-08-24T00:53:37;100441.03;;;20.38;100.00
46087;BME280;31824;49.648;8.640;2023-08-24T00:56:40;100464.91;;;20.20;100.00
46087;BME280;31824;49.648;8.640;2023-08-24T00:59:43;100472.50;;;19.98;100.00
46087;BME280;31824;49.648;8.640;2023-08-24T01:02:45;100474.69;;;20.05;100.00
46087;BME280;31824;49.648;8.640;2023-08-24T01:05:48;100471.00;;;20.18;100.00
46087;BME280;31824;49.648;8.640;2023-08-24T01:08:50;100475.38;;;19.86;100.00
46087;BME280;31824;49.648;8.640;2023-08-24T01:12:04;100463.75;;;20.00;100.00
46087;BME280;31824;49.648;8.640;2023-08-24T01:15:16;100457.09;;;20.08;100.00
46087;BME280;31824;49.648;8.640;2023-08-24T01:18:20;100467.94;;;19.80;100.00
46087;BME280;31824;49.648;8.640;2023-08-24T01:21:27;100460.91;;;19.82;100.00
46087;BME280;31824;49.648;8.640;2023-08-24T01:24:36;100455.72;;;19.70;100.00
46087;BME280;31824;49.648;8.640;2023-08-24T01:27:42;100453.63;;;19.50;100.00
46087;BME280;31824;49.648;8.640;2023-08-24T01:30:44;100459.16;;;19.53;100.00
46087;BME280;31824;49.648;8.640;2023-08-24T01:33:46;100451.50;;;19.44;100.00
46087;BME280;31824;49.648;8.640;2023-08-24T01:36:48;100456.72;;;19.28;100.00
46087;BME280;31824;49.648;8.640;2023-08-24T01:39:54;100458.84;;;19.48;100.00
46087;BME280;31824;49.648;8.640;2023-08-24T01:43:03;100456.50;;;19.53;100.00
46087;BME280;31824;49.648;8.640;2023-08-24T01:46:07;100458.84;;;19.48;100.00
46087;BME280;31824;49.648;8.640;2023-08-24T01:49:11;100454.81;;;19.70;100.00
46087;BME280;31824;49.648;8.640;2023-08-24T01:52:14;100454.44;;;19.34;100.00
46087;BME280;31824;49.648;8.640;2023-08-24T01:55:18;100452.09;;;19.10;100.00
46087;BME280;31824;49.648;8.640;2023-08-24T01:58:21;100447.53;;;19.22;100.00
46087;BME280;31824;49.648;8.640;2023-08-24T02:01:23;100443.03;;;19.36;100.00
46087;BME280;31824;49.648;8.640;2023-08-24T02:04:25;100443.06;;;19.51;100.00
46087;BME280;31824;49.648;8.640;2023-08-24T02:07:27;100430.19;;;19.44;100.00
46087;BME280;31824;49.648;8.640;2023-08-24T02:10:28;100424.22;;;19.33;100.00
46087;BME280;31824;49.648;8.640;2023-08-24T02:13:32;100424.84;;;19.14;100.00
46087;BME280;31824;49.648;8.640;2023-08-24T02:16:35;100428.53;;;19.16;100.00
46087;BME280;31824;49.648;8.640;2023-08-24T02:19:37;100418.41;;;19.40;100.00
46087;BME280;31824;49.648;8.640;2023-08-24T02:22:39;100403.94;;;19.50;100.00
46087;BME280;31824;49.648;8.640;2023-08-24T02:25:42;100415.28;;;19.03;100.00
46087;BME280;31824;49.648;8.640;2023-08-24T02:28:45;100410.53;;;19.27;100.00
46087;BME280;31824;49.648;8.640;2023-08-24T02:31:49;100407.59;;;19.67;100.00
46087;BME280;31824;49.648;8.640;2023-08-24T02:34:51;100406.38;;;19.77;100.00
46087;BME280;31824;49.648;8.640;2023-08-24T02:37:53;100411.06;;;19.36;100.00
46087;BME280;31824;49.648;8.640;2023-08-24T02:41:03;100414.03;;;19.26;100.00
46087;BME280;31824;49.648;8.640;2023-08-24T02:44:07;100418.06;;;19.19;100.00
46087;BME280;31824;49.648;8.640;2023-08-24T02:47:08;100405.47;;;19.17;100.00
46087;BME280;31824;49.648;8.640;2023-08-24T02:50:10;100401.53;;;19.55;100.00
46087;BME280;31824;49.648;8.640;2023-08-24T02:53:12;100395.63;;;19.61;100.00
46087;BME280;31824;49.648;8.640;2023-08-24T02:56:14;100406.13;;;19.28;100.00
46087;BME280;31824;49.648;8.640;2023-08-24T02:59:17;100413.50;;;19.03;100.00
46087;BME280;31824;49.648;8.640;2023-08-24T03:02:22;100412.94;;;18.94;100.00
46087;BME280;31824;49.648;8.640;2023-08-24T03:05:24;100408.22;;;19.33;100.00
46087;BME280;31824;49.648;8.640;2023-08-24T03:08:25;100399.78;;;19.55;100.00
46087;BME280;31824;49.648;8.640;2023-08-24T03:11:27;100407.22;;;19.76;100.00
46087;BME280;31824;49.648;8.640;2023-08-24T03:14:30;100400.72;;;19.56;100.00
46087;BME280;31824;49.648;8.640;2023-08-24T03:17:32;100412.00;;;19.22;100.00
46087;BME280;31824;49.648;8.640;2023-08-24T03:20:34;100414.94;;;19.56;100.00
46087;BME280;31824;49.648;8.640;2023-08-24T03:23:36;100398.22;;;19.89;100.00
46087;BME280;31824;49.648;8.640;2023-08-24T03:26:37;100395.06;;;19.96;100.00
46087;BME280;31824;49.648;8.640;2023-08-24T03:29:40;100362.97;;;19.95;100.00
46087;BME280;31824;49.648;8.640;2023-08-24T03:32:42;100325.56;;;19.93;100.00
46087;BME280;31824;49.648;8.640;2023-08-24T03:35:44;100294.19;;;19.57;100.00
46087;BME280;31824;49.648;8.640;2023-08-24T03:38:46;100279.19;;;20.06;100.00
46087;BME280;31824;49.648;8.640;2023-08-24T03:41:48;100276.69;;;20.75;100.00
46087;BME280;31824;49.648;8.640;2023-08-24T03:44:51;100279.03;;;21.74;100.00
46087;BME280;31824;49.648;8.640;2023-08-24T03:47:53;100285.41;;;21.96;100.00
46087;BME280;31824;49.648;8.640;2023-08-24T03:50:55;100284.13;;;21.87;100.00
46087;BME280;31824;49.648;8.640;2023-08-24T03:53:57;100283.84;;;21.63;100.00
46087;BME280;31824;49.648;8.640;2023-08-24T03:56:59;100295.66;;;21.32;100.00
46087;BME280;31824;49.648;8.640;2023-08-24T04:00:02;100308.72;;;20.58;100.00
46087;BME280;31824;49.648;8.640;2023-08-24T04:03:14;100295.06;;;20.36;100.00
46087;BME280;31824;49.648;8.640;2023-08-24T04:06:17;100281.88;;;20.22;100.00
46087;BME280;31824;49.648;8.640;2023-08-24T04:09:20;100288.34;;;20.11;100.00
46087;BME280;31824;49.648;8.640;2023-08-24T04:12:22;100305.72;;;20.36;100.00
46087;BME280;31824;49.648;8.640;2023-08-24T04:15:25;100302.47;;;20.25;100.00
46087;BME280;31824;49.648;8.640;2023-08-24T04:18:27;100306.09;;;19.94;100.00
46087;BME280;31824;49.648;8.640;2023-08-24T04:21:29;100303.13;;;19.89;100.00
46087;BME280;31824;49.648;8.640;2023-08-24T04:24:30;100312.91;;;19.89;100.00
46087;BME280;31824;49.648;8.640;2023-08-24T04:27:32;100324.56;;;20.22;100.00
46087;BME280;31824;49.648;8.640;2023-08-24T04:30:35;100328.03;;;20.05;100.00
46087;BME280;31824;49.648;8.640;2023-08-24T04:33:37;100319.28;;;20.07;100.00
46087;BME280;31824;49.648;8.640;2023-08-24T04:36:39;100316.09;;;19.98;100.00
46087;BME280;31824;49.648;8.640;2023-08-24T04:39:40;100310.63;;;20.12;100.00
46087;BME280;31824;49.648;8.640;2023-08-24T04:42:42;100313.31;;;19.80;100.00
46087;BME280;31824;49.648;8.640;2023-08-24T04:45:48;100322.00;;;19.78;100.00
46087;BME280;31824;49.648;8.640;2023-08-24T04:48:50;100313.25;;;19.95;100.00
46087;BME280;31824;49.648;8.640;2023-08-24T04:51:51;100311.41;;;19.94;100.00
46087;BME280;31824;49.648;8.640;2023-08-24T04:54:53;100312.47;;;20.13;100.00
46087;BME280;31824;49.648;8.640;2023-08-24T04:57:55;100311.28;;;20.07;100.00
46087;BME280;31824;49.648;8.640;2023-08-24T05:00:58;100311.63;;;19.82;100.00
46087;BME280;31824;49.648;8.640;2023-08-24T05:04:00;100308.75;;;19.94;100.00
46087;BME280;31824;49.648;8.640;2023-08-24T05:07:02;100311.53;;;20.12;100.00
46087;BME280;31824;49.648;8.640;2023-08-24T05:10:05;100312.72;;;19.86;100.00
46087;BME280;31824;49.648;8.640;2023-08-24T05:13:06;100318.88;;;19.70;100.00
46087;BME280;31824;49.648;8.640;2023-08-24T05:16:12;100325.03;;;19.69;100.00
46087;BME280;31824;49.648;8.640;2023-08-24T05:19:14;100345.00;;;19.61;100.00
46087;BME280;31824;49.648;8.640;2023-08-24T05:22:16;100369.66;;;19.42;100.00
46087;BME280;31824;49.648;8.640;2023-08-24T05:25:18;100398.94;;;19.27;100.00
46087;BME280;31824;49.648;8.640;2023-08-24T05:28:20;100437.06;;;19.26;100.00
46087;BME280;31824;49.648;8.640;2023-08-24T05:31:23;100462.25;;;19.46;100.00
46087;BME280;31824;49.648;8.640;2023-08-24T05:34:24;100479.56;;;19.24;100.00
46087;BME280;31824;49.648;8.640;2023-08-24T05:37:26;100489.56;;;19.13;100.00
46087;BME280;31824;49.648;8.640;2023-08-24T05:40:28;100508.56;;;19.04;100.00
46087;BME280;31824;49.648;8.640;2023-08-24T05:43:29;100517.34;;;19.03;100.00
46087;BME280;31824;49.648;8.640;2023-08-24T05:46:33;100527.88;;;19.15;100.00
46087;BME280;31824;49.648;8.640;2023-08-24T05:49:34;100527.44;;;19.22;100.00
46087;BME280;31824;49.648;8.640;2023-08-24T05:52:36;100523.84;;;19.22;100.00
46087;BME280;31824;49.648;8.640;2023-08-24T05:55:38;100524.34;;;19.30;100.00
46087;BME280;31824;49.648;8.640;2023-08-24T05:58:40;100514.28;;;19.54;100.00
46087;BME280;31824;49.648;8.640;2023-08-24T06:01:43;100502.72;;;19.68;100.00
46087;BME280;31824;49.648;8.640;2023-08-24T06:04:45;100484.91;;;19.97;100.00
46087;BME280;31824;49.648;8.640;2023-08-24T06:07:48;100455.22;;;20.06;100.00
46087;BME280;31824;49.648;8.640;2023-08-24T06:10:50;100443.56;;;20.20;100.00
46087;BME280;31824;49.648;8.640;2023-08-24T06:13:52;100442.22;;;20.12;100.00
46087;BME280;31824;49.648;8.640;2023-08-24T06:16:56;100431.25;;;20.22;100.00
46087;BME280;31824;49.648;8.640;2023-08-24T06:19:58;100425.34;;;19.97;100.00
46087;BME280;31824;49.648;8.640;2023-08-24T06:22:59;100415.69;;;19.84;100.00
46087;BME280;31824;49.648;8.640;2023-08-24T06:26:01;100417.53;;;19.85;100.00
46087;BME280;31824;49.648;8.640;2023-08-24T06:29:03;100434.00;;;19.93;100.00
46087;BME280;31824;49.648;8.640;2023-08-24T06:32:06;100409.66;;;20.03;100.00
46087;BME280;31824;49.648;8.640;2023-08-24T06:35:08;100406.56;;;20.10;100.00
46087;BME280;31824;49.648;8.640;2023-08-24T06:38:10;100394.56;;;20.18;100.00
46087;BME280;31824;49.648;8.640;2023-08-24T06:41:11;100377.03;;;20.55;100.00
46087;BME280;31824;49.648;8.640;2023-08-24T06:44:14;100366.59;;;20.60;100.00
46087;BME280;31824;49.648;8.640;2023-08-24T06:47:17;100364.69;;;20.90;100.00
46087;BME280;31824;49.648;8.640;2023-08-24T06:50:19;100366.72;;;20.78;100.00
46087;BME280;31824;49.648;8.640;2023-08-24T06:53:21;100371.91;;;20.74;100.00
46087;BME280;31824;49.648;8.640;2023-08-24T06:56:23;100372.09;;;20.63;100.00
46087;BME280;31824;49.648;8.640;2023-08-24T06:59:25;100374.41;;;20.71;100.00
46087;BME280;31824;49.648;8.640;2023-08-24T07:02:28;100385.84;;;20.69;100.00
46087;BME280;31824;49.648;8.640;2023-08-24T07:05:31;100378.06;;;20.73;100.00
46087;BME280;31824;49.648;8.640;2023-08-24T07:08:33;100365.72;;;20.76;100.00
46087;BME280;31824;49.648;8.640;2023-08-24T07:11:38;100364.63;;;20.88;100.00
46087;BME280;31824;49.648;8.640;2023-08-24T07:14:40;100363.88;;;21.25;100.00
46087;BME280;31824;49.648;8.640;2023-08-24T07:17:43;100355.13;;;21.63;100.00
46087;BME280;31824;49.648;8.640;2023-08-24T07:20:45;100348.72;;;21.59;100.00
46087;BME280;31824;49.648;8.640;2023-08-24T07:23:46;100348.16;;;21.66;100.00
46087;BME280;31824;49.648;8.640;2023-08-24T07:26:48;100345.06;;;21.75;100.00
46087;BME280;31824;49.648;8.640;2023-08-24T07:29:50;100352.84;;;21.88;100.00
46087;BME280;31824;49.648;8.640;2023-08-24T07:32:53;100357.78;;;22.17;100.00
46087;BME280;31824;49.648;8.640;2023-08-24T07:35:55;100358.50;;;22.32;100.00
46087;BME280;31824;49.648;8.640;2023-08-24T07:38:58;100363.34;;;22.39;100.00
46087;BME280;31824;49.648;8.640;2023-08-24T07:42:00;100382.31;;;22.44;100.00
46087;BME280;31824;49.648;8.640;2023-08-24T07:45:02;100385.31;;;22.52;100.00
46087;BME280;31824;49.648;8.640;2023-08-24T07:48:06;100396.00;;;22.70;100.00
46087;BME280;31824;49.648;8.640;2023-08-24T07:51:07;100400.53;;;22.90;100.00
46087;BME280;31824;49.648;8.640;2023-08-24T07:54:10;100401.91;;;23.02;100.00
46087;BME280;31824;49.648;8.640;2023-08-24T07:57:12;100413.44;;;23.19;100.00
46087;BME280;31824;49.648;8.640;2023-08-24T08:00:14;100414.78;;;23.29;100.00
46087;BME280;31824;49.648;8.640;2023-08-24T08:03:17;100395.69;;;23.42;100.00
46087;BME280;31824;49.648;8.640;2023-08-24T08:06:19;100395.69;;;23.42;100.00
46087;BME280;31824;49.648;8.640;2023-08-24T08:09:23;100386.94;;;23.46;100.00
46087;BME280;31824;49.648;8.640;2023-08-24T08:12:25;100363.25;;;23.57;100.00
46087;BME280;31824;49.648;8.640;2023-08-24T08:15:26;100347.34;;;23.62;100.00
46087;BME280;31824;49.648;8.640;2023-08-24T08:18:30;100319.03;;;23.68;100.00
46087;BME280;31824;49.648;8.640;2023-08-24T08:21:32;100294.72;;;23.86;100.00
46087;BME280;31824;49.648;8.640;2023-08-24T08:24:34;100287.56;;;24.08;100.00
46087;BME280;31824;49.648;8.640;2023-08-24T08:27:35;100263.03;;;24.21;100.00
46087;BME280;31824;49.648;8.640;2023-08-24T08:30:37;100257.50;;;24.17;100.00
46087;BME280;31824;49.648;8.640;2023-08-24T08:33:41;100244.59;;;24.31;100.00
46087;BME280;31824;49.648;8.640;2023-08-24T08:36:42;100240.81;;;24.03;100.00
46087;BME280;31824;49.648;8.640;2023-08-24T08:39:44;100234.25;;;23.94;100.00
46087;BME280;31824;49.648;8.640;2023-08-24T08:42:46;100240.78;;;24.01;100.00
46087;BME280;31824;49.648;8.640;2023-08-24T08:45:49;100241.38;;;24.17;100.00
46087;BME280;31824;49.648;8.640;2023-08-24T08:48:52;100249.06;;;24.07;100.00
46087;BME280;31824;49.648;8.640;2023-08-24T08:51:55;100238.94;;;24.00;100.00
46087;BME280;31824;49.648;8.640;2023-08-24T08:54:57;100230.91;;;24.24;100.00
46087;BME280;31824;49.648;8.640;2023-08-24T08:58:00;100229.28;;;24.52;100.00
46087;BME280;31824;49.648;8.640;2023-08-24T09:01:03;100221.06;;;24.49;100.00
46087;BME280;31824;49.648;8.640;2023-08-24T09:04:08;100228.97;;;24.44;100.00
46087;BME280;31824;49.648;8.640;2023-08-24T09:07:10;100240.59;;;24.68;100.00
46087;BME280;31824;49.648;8.640;2023-08-24T09:10:14;100226.84;;;25.10;100.00
46087;BME280;31824;49.648;8.640;2023-08-24T09:13:17;100221.22;;;25.30;100.00
46087;BME280;31824;49.648;8.640;2023-08-24T09:16:19;100221.16;;;25.28;100.00
46087;BME280;31824;49.648;8.640;2023-08-24T09:19:27;100235.47;;;25.53;100.00
46087;BME280;31824;49.648;8.640;2023-08-24T09:22:35;100241.84;;;25.56;100.00
46087;BME280;31824;49.648;8.640;2023-08-24T09:25:44;100219.19;;;25.50;100.00
46087;BME280;31824;49.648;8.640;2023-08-24T09:28:46;100204.75;;;26.04;100.00
46087;BME280;31824;49.648;8.640;2023-08-24T09:31:50;100202.34;;;26.45;100.00
46087;BME280;31824;49.648;8.640;2023-08-24T09:34:53;100179.41;;;26.59;100.00
46087;BME280;31824;49.648;8.640;2023-08-24T09:37:56;100167.47;;;26.83;100.00
46087;BME280;31824;49.648;8.640;2023-08-24T09:40:58;100156.28;;;27.01;100.00
46087;BME280;31824;49.648;8.640;2023-08-24T09:44:03;100163.03;;;27.20;100.00
46087;BME280;31824;49.648;8.640;2023-08-24T09:47:09;100157.84;;;27.29;100.00
46087;BME280;31824;49.648;8.640;2023-08-24T09:50:13;100161.16;;;27.54;100.00
46087;BME280;31824;49.648;8.640;2023-08-24T09:53:17;100147.00;;;27.28;100.00
46087;BME280;31824;49.648;8.640;2023-08-24T09:56:24;100162.94;;;27.17;100.00
46087;BME280;31824;49.648;8.640;2023-08-24T09:59:29;100153.88;;;27.13;100.00
46087;BME280;31824;49.648;8.640;2023-08-24T10:02:36;100155.25;;;27.34;100.00
46087;BME280;31824;49.648;8.640;2023-08-24T10:05:39;100152.94;;;27.50;100.00
46087;BME280;31824;49.648;8.640;2023-08-24T10:09:00;100148.16;;;27.76;100.00
46087;BME280;31824;49.648;8.640;2023-08-24T10:12:04;100134.25;;;27.59;100.00
46087;BME280;31824;49.648;8.640;2023-08-24T10:15:07;100135.97;;;27.96;100.00
46087;BME280;31824;49.648;8.640;2023-08-24T10:18:10;100130.06;;;28.15;100.00
46087;BME280;31824;49.648;8.640;2023-08-24T10:21:14;100149.44;;;28.39;100.00
46087;BME280;31824;49.648;8.640;2023-08-24T10:24:18;100146.63;;;28.32;100.00
46087;BME280;31824;49.648;8.640;2023-08-24T10:27:23;100145.06;;;28.44;100.00
46087;BME280;31824;49.648;8.640;2023-08-24T10:30:25;100135.41;;;28.11;100.00
46087;BME280;31824;49.648;8.640;2023-08-24T10:33:29;100130.03;;;28.13;100.00
46087;BME280;31824;49.648;8.640;2023-08-24T10:36:33;100149.22;;;28.73;100.00
46087;BME280;31824;49.648;8.640;2023-08-24T10:39:36;100142.94;;;28.74;100.00
46087;BME280;31824;49.648;8.640;2023-08-24T10:42:44;100134.03;;;28.83;100.00
46087;BME280;31824;49.648;8.640;2023-08-24T10:45:56;100129.97;;;29.08;100.00
46087;BME280;31824;49.648;8.640;2023-08-24T10:48:58;100126.69;;;29.29;100.00
46087;BME280;31824;49.648;8.640;2023-08-24T10:55:29;100105.44;;;28.95;100.00
46087;BME280;31824;49.648;8.640;2023-08-24T10:58:33;100096.13;;;29.35;100.00
46087;BME280;31824;49.648;8.640;2023-08-24T11:01:38;100085.44;;;29.44;100.00
46087;BME280;31824;49.648;8.640;2023-08-24T11:04:40;100082.84;;;29.53;100.00
46087;BME280;31824;49.648;8.640;2023-08-24T11:07:49;100079.34;;;29.62;100.00
46087;BME280;31824;49.648;8.640;2023-08-24T11:10:53;100075.03;;;29.76;100.00
46087;BME280;31824;49.648;8.640;2023-08-24T11:14:14;100085.31;;;30.04;100.00
46087;BME280;31824;49.648;8.640;2023-08-24T11:17:21;100078.03;;;30.01;100.00
46087;BME280;31824;49.648;8.640;2023-08-24T11:20:24;100078.13;;;30.09;100.00
46087;BME280;31824;49.648;8.640;2023-08-24T11:23:26;100078.06;;;30.03;100.00
46087;BME280;31824;49.648;8.640;2023-08-24T11:26:30;100075.53;;;30.20;100.00
46087;BME280;31824;49.648;8.640;2023-08-24T11:29:35;100074.34;;;29.94;100.00
46087;BME280;31824;49.648;8.640;2023-08-24T11:32:37;100057.47;;;30.19;100.00
46087;BME280;31824;49.648;8.640;2023-08-24T11:35:41;100052.81;;;30.07;100.00
46087;BME280;31824;49.648;8.640;2023-08-24T11:38:44;100048.00;;;30.69;100.00
46087;BME280;31824;49.648;8.640;2023-08-24T11:41:59;100043.03;;;30.21;100.00
46087;BME280;31824;49.648;8.640;2023-08-24T11:45:01;100039.47;;;30.27;100.00
46087;BME280;31824;49.648;8.640;2023-08-24T11:48:03;100043.06;;;30.26;100.00
46087;BME280;31824;49.648;8.640;2023-08-24T11:51:09;100036.72;;;30.19;100.00
46087;BME280;31824;49.648;8.640;2023-08-24T11:54:12;100040.97;;;29.97;100.00
46087;BME280;31824;49.648;8.640;2023-08-24T11:57:15;100033.78;;;29.99;100.00
46087;BME280;31824;49.648;8.640;2023-08-24T12:00:18;100014.97;;;30.13;100.00
46087;BME280;31824;49.648;8.640;2023-08-24T12:03:21;100013.78;;;29.88;100.00
46087;BME280;31824;49.648;8.640;2023-08-24T12:06:26;100016.56;;;29.92;100.00
46087;BME280;31824;49.648;8.640;2023-08-24T12:09:29;100010.69;;;30.38;100.00
46087;BME280;31824;49.648;8.640;2023-08-24T12:12:32;100009.78;;;30.41;100.00
46087;BME280;31824;49.648;8.640;2023-08-24T12:15:34;100005.03;;;30.15;100.00
46087;BME280;31824;49.648;8.640;2023-08-24T12:18:46;100010.59;;;30.27;100.00
46087;BME280;31824;49.648;8.640;2023-08-24T12:21:50;100003.16;;;30.06;100.00
46087;BME280;31824;49.648;8.640;2023-08-24T12:24:51;100001.34;;;30.07;100.00
46087;BME280;31824;49.648;8.640;2023-08-24T12:28:08;99991.56;;;30.21;100.00
46087;BME280;31824;49.648;8.640;2023-08-24T12:31:14;99986.13;;;30.18;100.00
46087;BME280;31824;49.648;8.640;2023-08-24T12:34:16;99979.88;;;30.28;100.00
46087;BME280;31824;49.648;8.640;2023-08-24T12:37:18;99975.28;;;30.18;100.00
46087;BME280;31824;49.648;8.640;2023-08-24T12:40:19;99967.09;;;30.13;100.00
46087;BME280;31824;49.648;8.640;2023-08-24T12:43:24;99946.75;;;29.65;100.00
46087;BME280;31824;49.648;8.640;2023-08-24T12:46:26;99947.75;;;29.76;100.00
46087;BME280;31824;49.648;8.640;2023-08-24T12:49:29;99952.72;;;30.21;100.00
46087;BME280;31824;49.648;8.640;2023-08-24T12:52:31;99951.66;;;30.02;100.00
46087;BME280;31824;49.648;8.640;2023-08-24T12:55:34;99961.56;;;30.01;100.00
46087;BME280;31824;49.648;8.640;2023-08-24T12:58:38;99966.31;;;30.27;100.00
46087;BME280;31824;49.648;8.640;2023-08-24T13:01:39;99975.59;;;30.54;100.00
46087;BME280;31824;49.648;8.640;2023-08-24T13:04:41;99974.41;;;30.24;100.00
46087;BME280;31824;49.648;8.640;2023-08-24T13:07:43;99967.09;;;30.15;100.00
46087;BME280;31824;49.648;8.640;2023-08-24T13:10:45;99971.81;;;30.35;100.00
46087;BME280;31824;49.648;8.640;2023-08-24T13:13:48;99958.16;;;30.24;100.00
46087;BME280;31824;49.648;8.640;2023-08-24T13:16:50;99950.47;;;29.75;100.00
46087;BME280;31824;49.648;8.640;2023-08-24T13:19:51;99953.91;;;29.61;100.00
46087;BME280;31824;49.648;8.640;2023-08-24T13:22:53;99947.66;;;29.67;100.00
46087;BME280;31824;49.648;8.640;2023-08-24T13:25:57;99941.34;;;29.65;100.00
46087;BME280;31824;49.648;8.640;2023-08-24T13:29:00;99943.78;;;29.40;100.00
46087;BME280;31824;49.648;8.640;2023-08-24T13:32:03;99968.34;;;29.60;100.00
46087;BME280;31824;49.648;8.640;2023-08-24T13:35:05;99954.63;;;29.42;100.00
46087;BME280;31824;49.648;8.640;2023-08-24T13:38:10;99964.38;;;29.30;100.00
46087;BME280;31824;49.648;8.640;2023-08-24T13:41:12;99958.25;;;29.47;100.00
46087;BME280;31824;49.648;8.640;2023-08-24T13:44:15;99962.94;;;29.62;100.00
46087;BME280;31824;49.648;8.640;2023-08-24T13:47:17;99968.50;;;29.74;100.00
46087;BME280;31824;49.648;8.640;2023-08-24T13:50:18;99959.84;;;30.09;100.00
46087;BME280;31824;49.648;8.640;2023-08-24T13:53:20;99957.13;;;30.09;100.00
46087;BME280;31824;49.648;8.640;2023-08-24T13:56:22;99955.44;;;30.19;100.00
46087;BME280;31824;49.648;8.640;2023-08-24T13:59:25;99958.53;;;29.70;100.00
46087;BME280;31824;49.648;8.640;2023-08-24T14:02:27;99967.16;;;29.35;100.00
46087;BME280;31824;49.648;8.640;2023-08-24T14:05:29;99978.56;;;29.14;100.00
46087;BME280;31824;49.648;8.640;2023-08-24T14:08:30;99989.31;;;29.06;100.00
46087;BME280;31824;49.648;8.640;2023-08-24T14:11:32;99991.75;;;28.89;100.00
46087;BME280;31824;49.648;8.640;2023-08-24T14:14:35;100005.22;;;28.86;100.00
46087;BME280;31824;49.648;8.640;2023-08-24T14:17:37;100012.38;;;28.81;100.00
46087;BME280;31824;49.648;8.640;2023-08-24T14:20:39;100017.63;;;28.73;100.00
46087;BME280;31824;49.648;8.640;2023-08-24T14:23:41;100032.00;;;28.69;100.00
46087;BME280;31824;49.648;8.640;2023-08-24T14:26:43;100045.38;;;28.61;100.00
46087;BME280;31824;49.648;8.640;2023-08-24T14:29:48;100052.38;;;28.50;100.00
46087;BME280;31824;49.648;8.640;2023-08-24T14:32:50;100080.19;;;28.44;100.00
46087;BME280;31824;49.648;8.640;2023-08-24T14:35:52;100126.75;;;28.29;100.00
46087;BME280;31824;49.648;8.640;2023-08-24T14:38:54;100144.63;;;28.23;100.00
46087;BME280;31824;49.648;8.640;2023-08-24T14:41:56;100166.78;;;28.05;100.00
46087;BME280;31824;49.648;8.640;2023-08-24T14:44:59;100184.03;;;27.70;100.00
46087;BME280;31824;49.648;8.640;2023-08-24T14:48:00;100193.81;;;26.93;100.00
46087;BME280;31824;49.648;8.640;2023-08-24T14:51:02;100202.78;;;26.60;100.00
46087;BME280;31824;49.648;8.640;2023-08-24T14:54:04;100207.03;;;26.20;100.00
46087;BME280;31824;49.648;8.640;2023-08-24T14:57:07;100227.03;;;26.00;100.00
46087;BME280;31824;49.648;8.640;2023-08-24T15:00:11;100202.88;;;25.43;100.00
46087;BME280;31824;49.648;8.640;2023-08-24T15:03:13;100114.28;;;24.93;100.00
46087;BME280;31824;49.648;8.640;2023-08-24T15:06:15;100038.06;;;24.63;100.00
46087;BME280;31824;49.648;8.640;2023-08-24T15:09:16;99973.34;;;24.27;100.00
46087;BME280;31824;49.648;8.640;2023-08-24T15:12:18;99894.84;;;24.07;100.00
46087;BME280;31824;49.648;8.640;2023-08-24T15:15:24;99881.91;;;23.96;100.00
46087;BME280;31824;49.648;8.640;2023-08-24T15:18:26;99875.34;;;24.13;100.00
46087;BME280;31824;49.648;8.640;2023-08-24T15:21:28;99826.44;;;24.23;100.00
46087;BME280;31824;49.648;8.640;2023-08-24T15:24:30;99796.53;;;24.11;100.00
46087;BME280;31824;49.648;8.640;2023-08-24T15:27:32;99739.63;;;23.92;100.00
46087;BME280;31824;49.648;8.640;2023-08-24T15:30:35;99723.19;;;24.10;100.00
46087;BME280;31824;49.648;8.640;2023-08-24T15:33:36;99705.09;;;24.35;100.00
46087;BME280;31824;49.648;8.640;2023-08-24T15:36:38;99670.59;;;24.17;100.00
46087;BME280;31824;49.648;8.640;2023-08-24T15:39:41;99677.91;;;24.23;100.00
46087;BME280;31824;49.648;8.640;2023-08-24T15:42:43;99659.53;;;24.38;100.00
46087;BME280;31824;49.648;8.640;2023-08-24T15:45:49;99631.47;;;24.25;100.00
46087;BME280;31824;49.648;8.640;2023-08-24T15:48:51;99637.00;;;24.64;100.00